Time;durP1;ratioP1;P1;durP2;ratioP2;P2;SDS_P1;SDS_P2;PMS_P1;PMS_P2;Temp;Humidity;BMP_temperature;BMP_pressure;BME280_temperature;BME280_humidity;BME280_pressure;Samples;Min_cycle;Max_cycle;Signal;HPM_P1;HPM_P2
2021/07/09 00:01:30;;;;;;;1.73;1.60;;;;;;;18.79;100.00;101389.28;5034798;28;20474;-71
2021/07/09 00:03:57;;;;;;;2.10;1.90;;;;;;;18.83;100.00;101395.72;5034954;28;20447;-71
2021/07/09 00:06:24;;;;;;;1.90;1.37;;;;;;;18.86;100.00;101400.53;5034965;28;20445;-71
2021/07/09 00:08:52;;;;;;;1.87;1.33;;;;;;;18.84;100.00;101396.53;5034806;28;20482;-71
2021/07/09 00:11:19;;;;;;;1.50;1.40;;;;;;;18.86;100.00;101391.50;5034443;28;20483;-71
2021/07/09 00:13:46;;;;;;;1.60;1.50;;;;;;;18.85;100.00;101390.69;5034816;28;20485;-71
2021/07/09 00:16:13;;;;;;;2.20;1.83;;;;;;;18.87;100.00;101393.91;5034710;28;20441;-71
2021/07/09 00:18:39;;;;;;;2.27;2.07;;;;;;;18.84;100.00;101375.34;5034755;28;20439;-71
2021/07/09 00:21:06;;;;;;;2.40;1.73;;;;;;;18.83;100.00;101373.75;5033546;28;20474;-71
2021/07/09 00:23:33;;;;;;;3.10;1.60;;;;;;;18.77;100.00;101372.38;5034465;28;20944;-71
2021/07/09 00:26:01;;;;;;;2.27;1.67;;;;;;;18.78;100.00;101368.47;5034470;28;20450;-71
2021/07/09 00:28:27;;;;;;;1.63;1.33;;;;;;;18.79;100.00;101361.84;5034450;28;20897;-71
2021/07/09 00:30:54;;;;;;;2.70;1.70;;;;;;;18.78;100.00;101357.50;5034084;28;20826;-71
2021/07/09 00:33:20;;;;;;;2.50;1.97;;;;;;;18.80;100.00;101357.16;5034650;28;20830;-71
2021/07/09 00:35:47;;;;;;;2.60;1.53;;;;;;;18.80;100.00;101357.16;5034097;28;20447;-73
2021/07/09 00:38:13;;;;;;;1.77;1.23;;;;;;;18.82;100.00;101352.94;5034273;28;20439;-71
2021/07/09 00:40:40;;;;;;;2.23;1.50;;;;;;;18.82;100.00;101344.72;5034215;28;20455;-71
2021/07/09 00:43:08;;;;;;;2.53;1.87;;;;;;;18.83;100.00;101349.06;5034018;28;20991;-70
2021/07/09 00:45:35;;;;;;;2.40;1.80;;;;;;;18.84;100.00;101338.88;5034207;28;20439;-71
2021/07/09 00:48:01;;;;;;;7.27;1.90;;;;;;;18.84;100.00;101342.41;5034039;28;20439;-71
2021/07/09 00:50:28;;;;;;;1.60;1.27;;;;;;;18.85;100.00;101327.53;5034084;28;20871;-70
2021/07/09 00:52:54;;;;;;;1.73;1.63;;;;;;;18.85;100.00;101343.22;5034079;28;20450;-71
2021/07/09 00:55:21;;;;;;;4.67;1.97;;;;;;;18.83;100.00;101335.31;5034047;28;20443;-71
2021/07/09 00:57:51;;;;;;;1.33;1.23;;;;;;;18.84;100.00;101330.63;5033950;28;20450;-71
2021/07/09 01:00:22;;;;;;;3.70;2.30;;;;;;;18.83;100.00;101324.34;5033456;28;20845;-71
2021/07/09 01:02:50;;;;;;;1.87;1.67;;;;;;;18.79;100.00;101333.59;5033628;28;20924;-71
2021/07/09 01:05:18;;;;;;;1.80;1.30;;;;;;;18.80;100.00;101338.75;5033523;28;20941;-71
2021/07/09 01:07:45;;;;;;;2.10;1.90;;;;;;;18.81;100.00;101343.09;5033379;28;20803;-71
2021/07/09 01:10:14;;;;;;;1.90;1.63;;;;;;;18.80;100.00;101344.22;5033362;28;20491;-71
2021/07/09 01:12:40;;;;;;;2.77;1.83;;;;;;;18.77;100.00;101342.19;5033715;28;20435;-71
2021/07/09 01:15:09;;;;;;;3.53;2.27;;;;;;;18.77;100.00;101339.44;5033646;28;20443;-70
2021/07/09 01:17:38;;;;;;;1.10;1.00;;;;;;;18.75;100.00;101336.22;5033305;28;20462;-71
2021/07/09 01:20:06;;;;;;;1.50;1.30;;;;;;;18.71;100.00;101338.03;5040028;28;20470;-71
2021/07/09 01:22:34;;;;;;;1.70;1.57;;;;;;;18.67;100.00;101337.06;5033647;28;20442;-71
2021/07/09 01:25:01;;;;;;;1.90;1.33;;;;;;;18.65;100.00;101333.88;5033453;28;20465;-71
2021/07/09 01:27:28;;;;;;;3.83;1.57;;;;;;;18.71;100.00;101331.72;5033497;28;20451;-71
2021/07/09 01:29:55;;;;;;;3.50;1.53;;;;;;;18.69;100.00;101334.00;5032972;28;21026;-71
2021/07/09 01:32:21;;;;;;;1.17;1.07;;;;;;;18.68;100.00;101324.94;5032862;28;20956;-71
2021/07/09 01:34:47;;;;;;;2.17;1.60;;;;;;;18.70;100.00;101313.66;5033332;28;20443;-70
2021/07/09 01:37:16;;;;;;;1.70;1.30;;;;;;;18.69;100.00;101296.41;5033345;28;20855;-72
2021/07/09 01:39:42;;;;;;;2.10;1.80;;;;;;;18.70;100.00;101308.97;5033294;28;20466;-71
2021/07/09 01:42:12;;;;;;;1.50;1.20;;;;;;;18.73;100.00;101299.28;5033273;28;20501;-71
2021/07/09 01:44:39;;;;;;;2.23;1.33;;;;;;;18.75;100.00;101317.00;5033314;28;20490;-71
2021/07/09 01:47:06;;;;;;;2.20;2.00;;;;;;;18.77;100.00;101316.66;5032895;28;20462;-71
2021/07/09 01:49:33;;;;;;;2.73;1.57;;;;;;;18.75;100.00;101308.75;5032771;28;20482;-71
2021/07/09 01:52:00;;;;;;;1.77;1.40;;;;;;;18.76;100.00;101295.84;5033158;28;20443;-70
2021/07/09 01:54:27;;;;;;;1.50;1.40;;;;;;;18.73;100.00;101289.09;5033186;28;20489;-71
2021/07/09 01:56:53;;;;;;;1.33;1.23;;;;;;;18.76;100.00;101290.34;5033106;28;20447;-71
2021/07/09 01:59:21;;;;;;;2.10;1.60;;;;;;;18.77;100.00;101292.78;5033085;28;20814;-71
2021/07/09 02:01:47;;;;;;;2.77;1.73;;;;;;;18.77;100.00;101290.03;5033083;28;20458;-71
2021/07/09 02:04:14;;;;;;;1.83;1.27;;;;;;;18.77;100.00;101287.28;5032914;28;20465;-70
2021/07/09 02:06:40;;;;;;;1.93;1.47;;;;;;;18.78;100.00;101288.88;5033069;28;20450;-71
2021/07/09 02:09:06;;;;;;;1.60;1.47;;;;;;;18.78;100.00;101288.09;5032862;28;20489;-70
2021/07/09 02:11:33;;;;;;;1.57;1.37;;;;;;;18.76;100.00;101291.16;5066173;22;20910;-70
2021/07/09 02:13:59;;;;;;;1.90;1.50;;;;;;;18.79;100.00;101287.72;5053056;28;20450;-69
2021/07/09 02:16:27;;;;;;;3.20;1.67;;;;;;;18.77;100.00;101287.28;5052866;28;20445;-68
2021/07/09 02:18:53;;;;;;;1.40;1.10;;;;;;;18.78;100.00;101282.59;5052949;28;20826;-68
2021/07/09 02:21:20;;;;;;;3.13;1.57;;;;;;;18.75;100.00;101272.28;5052868;28;20466;-69
2021/07/09 02:23:46;;;;;;;1.27;1.17;;;;;;;18.67;100.00;101261.00;5052983;28;20438;-70
2021/07/09 02:26:13;;;;;;;2.30;2.07;;;;;;;18.60;100.00;101254.50;5052882;28;20446;-69
2021/07/09 02:28:39;;;;;;;4.63;1.77;;;;;;;18.59;100.00;101256.44;5052520;28;21061;-70
2021/07/09 02:31:06;;;;;;;2.00;1.43;;;;;;;18.62;100.00;101266.72;5052371;28;20975;-69
2021/07/09 02:33:34;;;;;;;1.50;1.33;;;;;;;18.61;100.00;101267.06;5052650;28;20458;-70
2021/07/09 02:36:00;;;;;;;4.33;2.17;;;;;;;18.52;100.00;101269.91;5052525;28;20445;-70
2021/07/09 02:38:26;;;;;;;1.50;1.30;;;;;;;18.52;100.00;101258.94;5052713;28;20446;-70
2021/07/09 02:40:53;;;;;;;2.87;1.57;;;;;;;18.52;100.00;101260.88;5052417;28;20466;-70
2021/07/09 02:43:19;;;;;;;1.70;1.50;;;;;;;18.49;100.00;101254.09;5053587;28;20442;-70
2021/07/09 02:45:46;;;;;;;2.73;1.93;;;;;;;18.49;100.00;101259.59;5056440;28;20442;-71
2021/07/09 02:48:12;;;;;;;1.90;1.63;;;;;;;18.48;100.00;101257.19;5056431;28;20446;-70
2021/07/09 02:50:40;;;;;;;1.67;1.40;;;;;;;18.48;100.00;101260.75;5056222;28;20504;-70
2021/07/09 02:53:06;;;;;;;1.27;1.17;;;;;;;18.49;100.00;101261.53;5056355;28;20442;-70
2021/07/09 02:55:33;;;;;;;2.00;1.50;;;;;;;18.49;100.00;101264.28;5056260;28;20430;-69
2021/07/09 02:57:59;;;;;;;3.90;1.43;;;;;;;18.54;100.00;101262.13;5056239;28;20442;-71
2021/07/09 03:00:26;;;;;;;1.80;1.20;;;;;;;18.57;100.00;101261.44;5056175;28;20434;-71
2021/07/09 03:02:53;;;;;;;1.50;1.30;;;;;;;18.57;100.00;101263.41;5056189;28;20446;-71
2021/07/09 03:05:20;;;;;;;1.50;1.33;;;;;;;18.55;100.00;101263.75;5055882;28;20944;-70
2021/07/09 03:07:48;;;;;;;1.80;1.60;;;;;;;18.55;100.00;101254.69;5056258;28;20442;-71
2021/07/09 03:10:14;;;;;;;1.13;1.00;;;;;;;18.53;100.00;101254.25;5055931;28;20481;-70
2021/07/09 03:12:41;;;;;;;1.47;1.37;;;;;;;18.48;100.00;101246.22;5055649;28;20482;-70
2021/07/09 03:15:10;;;;;;;3.00;1.90;;;;;;;18.48;100.00;101240.72;5056064;28;20450;-71
2021/07/09 03:17:36;;;;;;;1.50;1.40;;;;;;;18.48;100.00;101232.50;5055628;28;20449;-70
2021/07/09 03:20:06;;;;;;;1.30;1.20;;;;;;;18.49;100.00;101231.34;5055505;28;20445;-70
2021/07/09 03:22:32;;;;;;;2.50;1.70;;;;;;;18.51;100.00;101229.91;5055462;28;20473;-71
2021/07/09 03:25:00;;;;;;;3.63;1.43;;;;;;;18.52;100.00;101225.19;5055755;28;20446;-71
2021/07/09 03:27:26;;;;;;;1.50;1.17;;;;;;;18.51;100.00;101229.09;5055816;28;20442;-70
2021/07/09 03:29:52;;;;;;;1.77;1.67;;;;;;;18.51;100.00;101223.59;5055342;28;20999;-70
2021/07/09 03:32:19;;;;;;;1.33;1.20;;;;;;;18.50;100.00;101221.97;5055226;28;20482;-70
2021/07/09 03:34:45;;;;;;;1.30;1.20;;;;;;;18.52;100.00;101219.72;5055227;28;20944;-70
2021/07/09 03:37:12;;;;;;;2.07;1.87;;;;;;;18.53;100.00;101210.34;5055541;28;20443;-69
2021/07/09 03:39:38;;;;;;;1.13;1.10;;;;;;;18.51;100.00;101223.59;5055579;28;20442;-70
2021/07/09 03:42:06;;;;;;;1.33;1.23;;;;;;;18.51;100.00;101229.09;5055427;28;20466;-70
2021/07/09 03:44:32;;;;;;;2.07;1.17;;;;;;;18.52;100.00;101239.72;5055463;28;20437;-70
2021/07/09 03:46:59;;;;;;;2.77;1.23;;;;;;;18.54;100.00;101239.38;5055373;28;20449;-71
2021/07/09 03:49:25;;;;;;;1.20;0.90;;;;;;;18.56;100.00;101231.63;5055222;28;20482;-70
2021/07/09 03:51:51;;;;;;;1.20;1.10;;;;;;;18.56;100.00;101229.66;5054905;28;20975;-71
2021/07/09 03:54:18;;;;;;;1.37;1.27;;;;;;;18.59;100.00;101231.75;5055116;28;20453;-70
2021/07/09 03:56:45;;;;;;;1.53;1.23;;;;;;;18.57;100.00;101223.03;5055269;28;20438;-70
2021/07/09 03:59:13;;;;;;;1.23;1.13;;;;;;;18.60;100.00;101224.31;5055100;28;20438;-70
2021/07/09 04:01:39;;;;;;;1.67;1.57;;;;;;;18.52;100.00;101233.44;5054752;28;20875;-70
2021/07/09 04:04:06;;;;;;;2.77;1.83;;;;;;;18.56;100.00;101228.88;5055043;28;20438;-70
2021/07/09 04:06:32;;;;;;;1.20;1.10;;;;;;;18.51;100.00;101240.88;5055182;28;20492;-70
2021/07/09 04:08:58;;;;;;;1.83;1.60;;;;;;;18.52;100.00;101239.72;5054820;28;20875;-71
2021/07/09 04:11:25;;;;;;;1.20;1.10;;;;;;;18.50;100.00;101246.69;5054646;28;20485;-70
2021/07/09 04:13:51;;;;;;;1.67;1.30;;;;;;;18.47;100.00;101245.44;5054899;28;20507;-70
2021/07/09 04:16:19;;;;;;;9.00;1.90;;;;;;;18.45;100.00;101246.88;5054720;28;20449;-68
2021/07/09 04:18:46;;;;;;;1.20;1.10;;;;;;;18.40;100.00;101240.47;5054993;28;20450;-68
2021/07/09 04:21:12;;;;;;;2.90;2.37;;;;;;;18.31;100.00;101238.97;5054606;28;20516;-70
2021/07/09 04:23:38;;;;;;;1.77;1.30;;;;;;;18.29;100.00;101231.09;5054688;28;20453;-71
2021/07/09 04:26:05;;;;;;;1.80;1.63;;;;;;;18.27;100.00;101227.84;5054644;28;20461;-71
2021/07/09 04:28:31;;;;;;;3.80;1.40;;;;;;;18.28;100.00;101229.47;5054841;28;20446;-69
2021/07/09 04:30:58;;;;;;;2.10;1.80;;;;;;;18.24;100.00;101223.06;5054064;28;21026;-69
2021/07/09 04:33:26;;;;;;;6.53;1.57;;;;;;;18.17;100.00;101219.25;5054940;28;20890;-69
2021/07/09 04:35:52;;;;;;;2.57;2.00;;;;;;;18.08;100.00;101211.91;5054256;28;20442;-69
2021/07/09 04:38:18;;;;;;;2.40;1.70;;;;;;;18.06;100.00;101213.38;5054616;28;20820;-69
2021/07/09 04:40:45;;;;;;;2.60;1.67;;;;;;;18.05;100.00;101206.28;5054590;28;20454;-69
2021/07/09 04:43:11;;;;;;;2.20;1.77;;;;;;;18.06;100.00;101210.63;5053965;28;20966;-69
2021/07/09 04:45:39;;;;;;;1.60;1.40;;;;;;;17.98;100.00;101203.31;5054316;28;20446;-69
2021/07/09 04:48:06;;;;;;;1.40;1.30;;;;;;;18.00;100.00;101210.03;5054635;28;20451;-67
2021/07/09 04:50:33;;;;;;;2.07;1.37;;;;;;;18.04;100.00;101210.16;5054279;28;20494;-69
2021/07/09 04:53:00;;;;;;;2.57;1.80;;;;;;;18.04;100.00;101204.69;5054161;28;20446;-69
2021/07/09 04:55:26;;;;;;;2.37;1.73;;;;;;;18.07;100.00;101202.09;5054095;28;20442;-68
2021/07/09 04:57:53;;;;;;;1.60;1.30;;;;;;;18.10;100.00;101204.13;5054261;28;20446;-69
2021/07/09 05:00:19;;;;;;;2.30;2.10;;;;;;;18.11;100.00;101199.47;5053902;28;20549;-69
2021/07/09 05:02:46;;;;;;;2.20;1.80;;;;;;;18.01;100.00;101200.66;5053919;28;20520;-69
2021/07/09 05:05:15;;;;;;;2.20;1.37;;;;;;;18.02;100.00;101194.06;5053908;28;20445;-69
2021/07/09 05:07:43;;;;;;;2.10;1.80;;;;;;;18.04;100.00;101185.50;5053278;28;20453;-71
2021/07/09 05:10:10;;;;;;;3.43;2.07;;;;;;;18.09;100.00;101185.28;5053379;28;21021;-70
2021/07/09 05:12:37;;;;;;;4.70;2.13;;;;;;;18.02;100.00;101185.03;5053322;28;20478;-70
2021/07/09 05:15:04;;;;;;;2.13;1.50;;;;;;;18.08;100.00;101178.22;5053491;28;20932;-70
2021/07/09 05:17:31;;;;;;;1.90;1.60;;;;;;;18.15;100.00;101181.22;5053796;28;20442;-70
2021/07/09 05:19:57;;;;;;;2.23;1.87;;;;;;;18.13;100.00;101178.00;5053530;28;20858;-71
2021/07/09 05:22:24;;;;;;;1.97;1.77;;;;;;;18.17;100.00;101169.91;5053597;28;20462;-69
2021/07/09 05:24:53;;;;;;;2.47;2.27;;;;;;;18.18;100.00;101166.00;5053256;28;20939;-70
2021/07/09 05:27:20;;;;;;;2.33;1.73;;;;;;;18.15;100.00;101153.78;5053719;28;20450;-69
2021/07/09 05:29:46;;;;;;;2.87;1.73;;;;;;;18.21;100.00;101144.19;5053710;28;20478;-70
2021/07/09 05:32:13;;;;;;;2.47;1.80;;;;;;;18.22;100.00;101142.25;5053264;28;20834;-69
2021/07/09 05:34:39;;;;;;;2.53;1.83;;;;;;;18.21;100.00;101138.72;5053446;28;20430;-69
2021/07/09 05:37:07;;;;;;;3.83;1.90;;;;;;;18.26;100.00;101127.53;5053380;28;20450;-70
2021/07/09 05:39:33;;;;;;;2.13;1.50;;;;;;;18.18;100.00;101120.19;5053494;28;20446;-69
2021/07/09 05:42:02;;;;;;;7.50;3.27;;;;;;;18.26;100.00;101118.50;5052897;28;20978;-70
2021/07/09 05:44:28;;;;;;;4.50;2.57;;;;;;;18.27;100.00;101111.88;5053245;28;20446;-69
2021/07/09 05:46:55;;;;;;;3.10;2.27;;;;;;;18.26;100.00;101102.03;5053048;28;20446;-70
2021/07/09 05:49:21;;;;;;;3.10;2.23;;;;;;;18.19;100.00;101099.06;5053153;28;20457;-70
2021/07/09 05:51:48;;;;;;;3.87;2.43;;;;;;;18.23;100.00;101098.03;5052989;28;20469;-69
2021/07/09 05:54:14;;;;;;;4.10;2.70;;;;;;;18.29;100.00;101090.41;5053208;28;20445;-69
2021/07/09 05:56:41;;;;;;;3.27;2.03;;;;;;;18.30;100.00;101098.28;5053260;28;20445;-70
2021/07/09 05:59:08;;;;;;;3.83;2.47;;;;;;;18.41;100.00;101115.88;5052919;28;20449;-67
2021/07/09 06:01:35;;;;;;;3.30;2.20;;;;;;;18.47;100.00;101115.69;5053093;28;20491;-66
2021/07/09 06:04:01;;;;;;;4.90;2.00;;;;;;;18.50;100.00;101117.72;5053029;28;20445;-66
2021/07/09 06:06:28;;;;;;;3.17;2.30;;;;;;;18.51;100.00;101122.88;5053041;28;20446;-65
2021/07/09 06:08:54;;;;;;;3.13;2.40;;;;;;;18.59;100.00;101126.66;5053239;28;20442;-70
2021/07/09 06:11:22;;;;;;;2.80;1.93;;;;;;;18.61;100.00;101127.91;5052922;28;20533;-70
2021/07/09 06:13:48;;;;;;;2.47;1.97;;;;;;;18.54;100.00;101116.69;5053422;28;20455;-69
2021/07/09 06:16:16;;;;;;;2.30;1.83;;;;;;;18.60;100.00;101114.56;5052833;28;20464;-70
2021/07/09 06:18:43;;;;;;;2.13;1.93;;;;;;;18.61;100.00;101125.19;5054703;28;20442;-68
2021/07/09 06:21:09;;;;;;;3.30;2.23;;;;;;;18.63;100.00;101130.31;5057153;28;20466;-69
2021/07/09 06:23:36;;;;;;;2.40;2.20;;;;;;;18.69;100.00;101125.41;5057299;28;20488;-70
2021/07/09 06:26:02;;;;;;;2.67;2.10;;;;;;;18.75;100.00;101135.84;5057055;28;20450;-70
2021/07/09 06:28:29;;;;;;;4.03;2.17;;;;;;;18.73;100.00;101129.91;5057090;28;20442;-69
2021/07/09 06:30:55;;;;;;;2.13;1.80;;;;;;;18.77;100.00;101135.50;5056858;28;20845;-70
2021/07/09 06:33:23;;;;;;;3.33;2.23;;;;;;;18.77;100.00;101127.25;5057050;28;20813;-70
2021/07/09 06:35:49;;;;;;;3.10;2.37;;;;;;;18.77;100.00;101128.09;5056865;28;20442;-69
2021/07/09 06:38:16;;;;;;;2.37;2.00;;;;;;;18.79;100.00;101125.00;5056453;28;20943;-70
2021/07/09 06:40:45;;;;;;;3.87;1.90;;;;;;;18.83;100.00;101132.19;5056620;28;20438;-70
2021/07/09 06:43:13;;;;;;;2.67;1.90;;;;;;;18.86;100.00;101125.22;5056605;28;20571;-70
2021/07/09 06:45:39;;;;;;;2.37;1.90;;;;;;;18.82;100.00;101129.81;5056721;28;20458;-69
2021/07/09 06:48:06;;;;;;;3.23;2.60;;;;;;;18.79;100.00;101133.22;5056686;28;20442;-70
2021/07/09 06:50:35;;;;;;;4.30;2.37;;;;;;;18.88;100.00;101139.41;5056476;28;20481;-70
2021/07/09 06:53:01;;;;;;;3.20;2.50;;;;;;;18.97;100.00;101131.03;5056415;28;20450;-70
2021/07/09 06:55:28;;;;;;;2.30;2.10;;;;;;;19.03;100.00;101129.66;5056530;28;20445;-68
2021/07/09 06:57:54;;;;;;;2.67;1.90;;;;;;;19.05;100.00;101135.63;5056335;28;20449;-71
2021/07/09 07:00:21;;;;;;;5.53;3.20;;;;;;;19.09;100.00;101129.09;5057150;28;20442;-70
2021/07/09 07:02:48;;;;;;;3.50;2.37;;;;;;;19.06;100.00;101129.78;5060451;28;20469;-71
2021/07/09 07:05:17;;;;;;;7.20;2.57;;;;;;;19.05;100.00;101121.88;5061351;28;20529;-70
2021/07/09 07:07:45;;;;;;;3.00;2.70;;;;;;;18.99;100.00;101112.25;5061244;28;20446;-70
2021/07/09 07:10:14;;;;;;;2.30;1.60;;;;;;;18.97;100.00;101114.56;5061192;28;20572;-70
2021/07/09 07:12:41;;;;;;;2.37;1.90;;;;;;;18.90;100.00;101113.22;5060573;28;20481;-69
2021/07/09 07:15:10;;;;;;;2.93;2.00;;;;;;;18.82;100.00;101118.81;5059794;28;20954;-69
2021/07/09 07:17:37;;;;;;;2.17;1.97;;;;;;;18.77;100.00;101113.53;5058331;28;20510;-68
2021/07/09 07:20:05;;;;;;;2.47;2.07;;;;;;;18.74;100.00;101114.25;5058469;28;20438;-69
2021/07/09 07:22:32;;;;;;;2.97;2.23;;;;;;;18.74;100.00;101122.47;5057460;28;20497;-70
2021/07/09 07:25:00;;;;;;;4.20;2.27;;;;;;;18.73;100.00;101121.69;5058220;28;21072;-70
2021/07/09 07:27:27;;;;;;;3.53;2.20;;;;;;;18.75;100.00;101113.88;5057727;28;20461;-69
2021/07/09 07:29:55;;;;;;;2.70;1.83;;;;;;;18.81;100.00;101112.50;5058669;28;20808;-71
2021/07/09 07:32:21;;;;;;;2.30;2.07;;;;;;;18.87;100.00;101108.41;5058545;28;20508;-70
2021/07/09 07:34:48;;;;;;;2.87;2.30;;;;;;;18.90;100.00;101104.16;5058760;28;20446;-69
2021/07/09 07:37:14;;;;;;;3.20;2.90;;;;;;;18.96;100.00;101102.00;5059306;28;20533;-70
2021/07/09 07:39:42;;;;;;;2.50;2.10;;;;;;;18.98;100.00;101108.72;5060328;28;20534;-69
2021/07/09 07:42:10;;;;;;;3.23;1.93;;;;;;;19.04;100.00;101110.09;5060063;28;20812;-69
2021/07/09 07:44:36;;;;;;;3.50;2.47;;;;;;;19.01;100.00;101097.06;5059875;28;20474;-70
2021/07/09 07:47:03;;;;;;;2.80;2.50;;;;;;;19.04;100.00;101098.31;5059634;28;20441;-70
2021/07/09 07:49:30;;;;;;;2.80;2.33;;;;;;;19.09;100.00;101103.56;5058918;28;20969;-70
2021/07/09 07:51:56;;;;;;;2.07;1.80;;;;;;;19.13;100.00;101101.75;5058399;28;20486;-70
2021/07/09 07:54:23;;;;;;;2.43;1.50;;;;;;;19.13;100.00;101099.00;5056585;28;20966;-70
2021/07/09 07:56:49;;;;;;;2.27;2.07;;;;;;;19.16;100.00;101095.53;5056655;28;20999;-70
2021/07/09 07:59:17;;;;;;;3.07;2.60;;;;;;;19.18;100.00;101098.75;5055965;28;20453;-70
2021/07/09 08:01:44;;;;;;;3.10;2.60;;;;;;;19.18;100.00;101098.75;5055797;28;20816;-71
2021/07/09 08:04:10;;;;;;;3.17;2.10;;;;;;;19.19;100.00;101100.34;5054828;28;20859;-66
2021/07/09 08:06:36;;;;;;;2.87;2.17;;;;;;;19.19;100.00;101094.84;5054884;28;20445;-69
2021/07/09 08:09:04;;;;;;;3.67;1.93;;;;;;;19.21;100.00;101098.03;5054855;28;20442;-69
2021/07/09 08:11:30;;;;;;;2.57;2.00;;;;;;;19.28;100.00;101091.97;5075565;22;20499;-72
2021/07/09 08:13:56;;;;;;;2.30;1.87;;;;;;;19.33;100.00;101099.97;5034846;28;20437;-73
2021/07/09 08:16:24;;;;;;;2.60;2.27;;;;;;;19.38;100.00;101102.47;5034918;28;20850;-73
2021/07/09 08:18:51;;;;;;;2.73;2.30;;;;;;;19.38;100.00;101097.75;5034688;28;20443;-74
2021/07/09 08:21:17;;;;;;;3.60;2.83;;;;;;;19.39;100.00;101096.63;5034595;28;20463;-76
2021/07/09 08:23:44;;;;;;;3.20;2.13;;;;;;;19.45;100.00;101091.69;5034426;28;20937;-75
2021/07/09 08:26:10;;;;;;;3.30;2.40;;;;;;;19.42;100.00;101090.44;5034340;28;20450;-75
2021/07/09 08:28:37;;;;;;;3.73;2.70;;;;;;;19.50;100.00;101082.41;5034661;28;20446;-75
2021/07/09 08:31:03;;;;;;;3.47;3.10;;;;;;;19.59;100.00;101083.84;5034407;28;20490;-75
2021/07/09 08:33:31;;;;;;;4.33;3.13;;;;;;;19.60;100.00;101085.47;5034552;28;20439;-75
2021/07/09 08:35:58;;;;;;;5.07;2.97;;;;;;;19.67;100.00;101087.63;5034418;28;20438;-76
2021/07/09 08:38:24;;;;;;;4.50;3.77;;;;;;;19.77;100.00;101097.31;5034418;28;20454;-75
2021/07/09 08:40:51;;;;;;;4.40;2.87;;;;;;;19.78;100.00;101091.44;5033637;28;20450;-76
2021/07/09 08:43:17;;;;;;;4.60;3.50;;;;;;;19.80;100.00;101094.66;5033904;28;21011;-77
2021/07/09 08:45:44;;;;;;;3.87;3.47;;;;;;;19.81;100.00;101093.50;5034276;28;20458;-76
2021/07/09 08:48:14;;;;;;;3.07;2.30;;;;;;;19.82;100.00;101097.06;5034257;28;20968;-75
2021/07/09 08:50:42;;;;;;;3.93;3.17;;;;;;;19.83;100.00;101101.41;5034120;28;20927;-74
2021/07/09 08:53:08;;;;;;;3.40;2.80;;;;;;;19.84;100.00;101098.31;5034050;28;20490;-74
2021/07/09 08:55:35;;;;;;;3.60;2.70;;;;;;;19.86;100.00;101097.97;5034145;28;20450;-73
2021/07/09 08:58:01;;;;;;;6.13;3.30;;;;;;;19.90;100.00;101093.34;5034080;28;20446;-73
2021/07/09 09:00:42;;;;;;;3.53;2.23;;;;;;;19.85;100.00;101090.88;5033883;28;20945;-73
2021/07/09 09:03:14;;;;;;;3.13;2.23;;;;;;;19.85;100.00;101088.13;5033903;28;20850;-71
2021/07/09 09:05:43;;;;;;;4.17;2.93;;;;;;;19.85;100.00;101086.16;5033839;28;20439;-71
2021/07/09 09:08:11;;;;;;;4.57;3.70;;;;;;;19.97;100.00;101084.50;5033906;28;20447;-72
2021/07/09 09:10:39;;;;;;;4.30;2.80;;;;;;;20.12;100.00;101080.97;5033398;28;20944;-71
2021/07/09 09:13:07;;;;;;;3.87;2.37;;;;;;;20.26;100.00;101069.53;5033574;28;20478;-69
2021/07/09 09:15:35;;;;;;;2.50;2.30;;;;;;;20.37;100.00;101076.91;5033998;28;20455;-71
2021/07/09 09:18:03;;;;;;;4.00;3.00;;;;;;;20.43;100.00;101074.69;5033797;28;20529;-70
2021/07/09 09:20:31;;;;;;;3.30;2.70;;;;;;;20.42;100.00;101073.88;5033820;28;20470;-71
2021/07/09 09:23:05;;;;;;;5.13;3.47;;;;;;;20.47;100.00;101077.53;5033295;28;20506;-72
2021/07/09 09:25:33;;;;;;;3.80;2.97;;;;;;;20.38;100.00;101084.00;5032964;28;20450;-71
2021/07/09 09:28:05;;;;;;;2.40;2.10;;;;;;;20.40;100.00;101092.69;5033333;28;20452;-72
2021/07/09 09:30:33;;;;;;;2.90;2.30;;;;;;;20.28;100.00;101086.50;5033601;28;20423;-72
2021/07/09 09:33:03;;;;;;;3.43;2.20;;;;;;;20.33;100.00;101083.47;5033360;28;20458;-72
2021/07/09 09:35:32;;;;;;;3.47;2.80;;;;;;;20.34;100.00;101082.31;5032354;28;20940;-76
2021/07/09 09:38:01;;;;;;;3.37;2.70;;;;;;;20.38;100.00;101077.69;5032479;28;20463;-75
2021/07/09 09:40:30;;;;;;;5.17;2.73;;;;;;;20.42;100.00;101073.09;5033396;28;20470;-75
2021/07/09 09:42:56;;;;;;;3.63;3.30;;;;;;;20.41;100.00;101082.50;5033311;28;20466;-75
2021/07/09 09:45:25;;;;;;;2.70;2.27;;;;;;;20.43;100.00;101082.94;5033032;28;20793;-76
2021/07/09 09:47:53;;;;;;;3.17;2.77;;;;;;;20.41;100.00;101075.03;5033223;28;20443;-75
2021/07/09 09:50:22;;;;;;;3.20;2.43;;;;;;;20.42;100.00;101076.63;5033303;28;20454;-76
2021/07/09 09:52:50;;;;;;;3.53;2.10;;;;;;;20.37;100.00;101068.66;5032949;28;20560;-75
2021/07/09 09:55:21;;;;;;;3.60;2.30;;;;;;;20.40;100.00;101078.91;5032110;28;20450;-76
2021/07/09 09:58:07;;;;;;;4.00;1.87;;;;;;;20.42;100.00;101073.09;5030981;28;20435;-78
2021/07/09 10:00:34;;;;;;;2.80;2.23;;;;;;;20.44;100.00;101067.22;5032839;28;20489;-73
2021/07/09 10:03:03;;;;;;;2.73;2.20;;;;;;;20.36;100.00;101064.31;5032607;28;20455;-73
2021/07/09 10:05:31;;;;;;;2.60;2.40;;;;;;;20.31;100.00;101067.31;5032411;28;20444;-74
2021/07/09 10:07:59;;;;;;;2.27;2.07;;;;;;;20.26;100.00;101059.31;5032035;28;20455;-74
2021/07/09 10:10:25;;;;;;;2.33;2.13;;;;;;;20.33;100.00;101050.44;5032521;28;20447;-75
2021/07/09 10:12:55;;;;;;;3.97;2.90;;;;;;;20.40;100.00;101047.84;5031896;28;20490;-74
2021/07/09 10:15:21;;;;;;;2.30;2.10;;;;;;;20.35;100.00;101053.63;5031915;28;20447;-76
2021/07/09 10:17:50;;;;;;;4.90;2.53;;;;;;;20.31;100.00;101052.75;5032569;28;20463;-75
2021/07/09 10:20:19;;;;;;;3.10;2.80;;;;;;;20.30;100.00;101051.94;5032195;28;20459;-74
2021/07/09 10:22:46;;;;;;;2.40;2.20;;;;;;;20.27;100.00;101049.09;5031654;28;20872;-74
2021/07/09 10:25:14;;;;;;;2.30;2.03;;;;;;;20.29;100.00;101050.34;5031789;28;20968;-77
2021/07/09 10:27:43;;;;;;;2.30;2.00;;;;;;;20.36;100.00;101047.78;5032830;28;20466;-76
2021/07/09 10:30:12;;;;;;;3.80;2.10;;;;;;;20.31;100.00;101039.78;5032741;28;20447;-76
2021/07/09 10:32:40;;;;;;;3.30;2.37;;;;;;;20.35;100.00;101040.66;5032652;28;20518;-76
2021/07/09 10:35:08;;;;;;;3.67;2.80;;;;;;;20.30;100.00;101040.16;5032708;28;20447;-76
2021/07/09 10:37:34;;;;;;;2.23;1.83;;;;;;;20.32;100.00;101040.56;5032956;28;20443;-77
2021/07/09 10:40:10;;;;;;;7.47;2.30;;;;;;;20.31;100.00;101036.25;5032874;28;20450;-76
2021/07/09 10:42:40;;;;;;;2.53;2.33;;;;;;;20.28;100.00;101036.97;5032549;28;20475;-76
2021/07/09 10:45:17;;;;;;;3.40;1.90;;;;;;;20.29;100.00;101028.34;5032864;28;20835;-76
2021/07/09 10:47:55;;;;;;;2.93;2.20;;;;;;;20.27;100.00;101033.41;5032764;28;20431;-75
2021/07/09 10:50:35;;;;;;;3.67;2.20;;;;;;;20.28;100.00;101028.72;5032765;28;20810;-76
2021/07/09 10:53:03;;;;;;;2.73;2.23;;;;;;;20.27;100.00;101030.63;5032396;28;20517;-76
2021/07/09 10:55:43;;;;;;;3.60;2.67;;;;;;;20.29;100.00;101028.34;5032345;28;20964;-76
2021/07/09 10:58:39;;;;;;;4.23;2.63;;;;;;;20.24;100.00;101034.13;5032738;28;20439;-76
2021/07/09 11:01:35;;;;;;;3.63;2.30;;;;;;;20.20;100.00;101027.72;5032375;28;20431;-76
2021/07/09 11:04:11;;;;;;;2.23;2.03;;;;;;;20.17;100.00;101031.97;5032925;28;20434;-76
2021/07/09 11:06:38;;;;;;;4.30;2.50;;;;;;;20.20;100.00;101027.72;5036477;28;20482;-75
2021/07/09 11:09:07;;;;;;;3.70;2.60;;;;;;;20.18;100.00;101024.53;5036231;28;20442;-76
2021/07/09 11:11:36;;;;;;;2.53;1.83;;;;;;;20.27;100.00;101027.09;5035968;28;20506;-76
2021/07/09 11:14:04;;;;;;;2.00;1.80;;;;;;;20.25;100.00;101027.47;5036071;28;20443;-77
2021/07/09 11:16:35;;;;;;;2.97;2.37;;;;;;;20.26;100.00;101034.56;5036205;28;20439;-75
2021/07/09 11:19:08;;;;;;;2.00;1.87;;;;;;;20.23;100.00;101035.28;5036103;28;20439;-75